createdAt,value
2019-01-26T00:00:47.583Z,20.52
2019-01-26T00:03:23.375Z,21.47
2019-01-26T00:05:54.387Z,21.23
2019-01-26T00:08:25.854Z,20.33
2019-01-26T00:10:58.550Z,21.90
2019-01-26T00:13:30.477Z,21.20
2019-01-26T00:16:04.710Z,21.43
2019-01-26T00:18:35.472Z,21.07
2019-01-26T00:21:09.132Z,20.27
2019-01-26T00:23:42.612Z,20.00
2019-01-26T00:26:15.642Z,19.53
2019-01-26T00:28:48.650Z,19.97
2019-01-26T00:31:19.450Z,20.53
2019-01-26T00:33:50.288Z,19.27
2019-01-26T00:36:21.137Z,17.93
2019-01-26T00:38:53.470Z,18.03
2019-01-26T00:41:24.602Z,16.80
2019-01-26T00:43:56.113Z,18.07
2019-01-26T00:46:28.453Z,17.60
2019-01-26T00:48:58.820Z,16.50
2019-01-26T00:51:29.397Z,17.30
2019-01-26T00:53:59.875Z,16.40
2019-01-26T00:56:30.362Z,15.57
2019-01-26T00:59:00.912Z,16.43
2019-01-26T01:01:31.474Z,16.83
2019-01-26T01:04:02.006Z,15.73
2019-01-26T01:06:32.652Z,15.40
2019-01-26T01:09:04.560Z,15.47
2019-01-26T01:11:35.098Z,15.10
2019-01-26T01:14:05.943Z,15.10
2019-01-26T01:16:36.458Z,14.37
2019-01-26T01:19:06.944Z,14.47
2019-01-26T01:21:37.803Z,14.40
2019-01-26T01:24:08.283Z,14.47
2019-01-26T01:26:38.765Z,13.93
2019-01-26T01:29:09.256Z,14.30
2019-01-26T01:31:39.726Z,13.87
2019-01-26T01:34:11.961Z,13.43
2019-01-26T01:36:42.506Z,12.37
2019-01-26T01:39:12.997Z,13.07
2019-01-26T01:41:43.461Z,13.30
2019-01-26T01:44:13.965Z,12.77
2019-01-26T01:46:44.465Z,13.10
2019-01-26T01:49:14.946Z,13.03
2019-01-26T01:51:45.519Z,12.97
2019-01-26T01:54:16.018Z,13.67
2019-01-26T01:56:46.481Z,11.70
2019-01-26T01:59:17.014Z,12.23
2019-01-26T02:01:47.481Z,11.37
2019-01-26T02:04:18.005Z,11.73
2019-01-26T02:06:48.491Z,11.63
2019-01-26T02:09:19.040Z,12.60
2019-01-26T02:11:49.525Z,11.30
2019-01-26T02:14:20.002Z,11.60
2019-01-26T02:16:50.577Z,12.57
2019-01-26T02:19:21.024Z,11.37
2019-01-26T02:21:51.500Z,11.93
2019-01-26T02:24:21.980Z,11.30
2019-01-26T02:26:52.476Z,12.00
2019-01-26T02:29:22.952Z,11.43
2019-01-26T02:31:53.422Z,11.73
2019-01-26T02:34:23.843Z,12.37
2019-01-26T02:36:54.319Z,11.70
2019-01-26T02:39:24.777Z,11.30
2019-01-26T02:41:55.281Z,10.37
2019-01-26T02:44:25.727Z,11.67
2019-01-26T02:46:58.132Z,10.67
2019-01-26T02:49:28.404Z,11.63
2019-01-26T02:51:58.869Z,11.13
2019-01-26T02:54:29.315Z,9.87
2019-01-26T02:56:59.770Z,9.60
2019-01-26T02:59:30.210Z,9.67
2019-01-26T03:02:00.707Z,9.70
2019-01-26T03:04:31.218Z,9.73
2019-01-26T03:07:01.707Z,10.03
2019-01-26T03:09:32.182Z,10.20
2019-01-26T03:12:02.738Z,9.60
2019-01-26T03:14:33.192Z,9.03
2019-01-26T03:17:06.336Z,9.57
2019-01-26T03:19:36.033Z,9.33
2019-01-26T03:22:06.534Z,9.47
2019-01-26T03:24:37.031Z,8.67
2019-01-26T03:27:07.530Z,9.37
2019-01-26T03:29:38.074Z,8.80
2019-01-26T03:32:08.607Z,9.00
2019-01-26T03:34:39.109Z,9.50
2019-01-26T03:37:09.563Z,8.93
2019-01-26T03:39:40.083Z,9.73
2019-01-26T03:42:10.552Z,8.80
2019-01-26T03:44:41.006Z,9.37
2019-01-26T03:47:13.716Z,9.40
2019-01-26T03:49:43.882Z,8.93
2019-01-26T03:52:14.379Z,8.23
2019-01-26T03:54:44.888Z,8.93
2019-01-26T03:57:15.422Z,8.57
2019-01-26T03:59:46.002Z,8.17
2019-01-26T04:02:16.523Z,9.30
2019-01-26T04:04:47.101Z,8.67
2019-01-26T04:07:17.618Z,9.10
2019-01-26T04:09:48.106Z,8.20
2019-01-26T04:12:18.602Z,7.97
2019-01-26T04:14:49.147Z,8.40
2019-01-26T04:17:21.930Z,8.40
2019-01-26T04:19:52.088Z,8.13
2019-01-26T04:22:22.654Z,8.23
2019-01-26T04:25:12.463Z,7.80
2019-01-26T04:27:42.957Z,7.57
2019-01-26T04:30:23.975Z,8.27
2019-01-26T04:32:54.457Z,7.47
2019-01-26T04:35:24.956Z,7.43
2019-01-26T04:37:55.475Z,7.30
2019-01-26T04:40:26.077Z,7.43
2019-01-26T04:42:56.646Z,7.07
2019-01-26T04:45:27.234Z,6.87
2019-01-26T04:47:57.839Z,7.47
2019-01-26T04:50:28.396Z,6.20
2019-01-26T04:52:58.903Z,6.00
2019-01-26T04:55:29.450Z,6.67
2019-01-26T04:57:59.938Z,6.83
2019-01-26T05:00:30.787Z,6.23
2019-01-26T05:03:01.326Z,6.60
2019-01-26T05:05:31.866Z,6.60
2019-01-26T05:08:02.404Z,5.60
2019-01-26T05:10:32.951Z,5.67
2019-01-26T05:13:03.684Z,5.63
2019-01-26T05:15:34.198Z,5.40
2019-01-26T05:18:04.699Z,5.03
2019-01-26T05:20:35.211Z,5.23
2019-01-26T05:23:05.767Z,5.53
2019-01-26T05:25:36.388Z,5.23
2019-01-26T05:28:06.988Z,5.10
2019-01-26T05:30:37.532Z,5.17
2019-01-26T05:33:08.124Z,4.90
2019-01-26T05:35:38.721Z,4.90
2019-01-26T05:38:09.304Z,4.70
2019-01-26T05:40:40.025Z,4.90
2019-01-26T05:43:10.887Z,5.40
2019-01-26T05:45:41.458Z,4.43
2019-01-26T05:48:12.175Z,4.90
2019-01-26T05:50:43.092Z,4.67
2019-01-26T05:53:13.803Z,4.73
2019-01-26T05:55:44.522Z,4.40
2019-01-26T05:58:15.281Z,4.43
2019-01-26T06:00:46.024Z,4.30
2019-01-26T06:03:16.810Z,4.20
2019-01-26T06:05:48.000Z,4.20
2019-01-26T06:08:20.538Z,4.03
2019-01-26T06:10:51.234Z,4.47
2019-01-26T06:13:21.930Z,4.53
2019-01-26T06:15:52.686Z,4.37
2019-01-26T06:18:23.181Z,4.13
2019-01-26T06:20:53.830Z,4.20
2019-01-26T06:23:24.378Z,4.33
2019-01-26T06:25:54.910Z,3.63
2019-01-26T06:28:25.395Z,4.23
2019-01-26T06:30:55.959Z,4.27
2019-01-26T06:33:26.474Z,3.73
2019-01-26T06:35:56.979Z,3.70
2019-01-26T06:38:27.548Z,3.17
2019-01-26T06:41:02.396Z,3.10
2019-01-26T06:43:32.838Z,3.37
2019-01-26T06:46:04.318Z,3.40
2019-01-26T06:48:34.792Z,3.30
2019-01-26T06:51:05.434Z,3.07
2019-01-26T06:53:35.938Z,3.23
2019-01-26T06:56:06.446Z,2.87
2019-01-26T06:58:36.870Z,2.90
2019-01-26T07:01:07.531Z,3.40
2019-01-26T07:03:38.015Z,3.10
2019-01-26T07:06:30.206Z,2.97
2019-01-26T07:09:00.651Z,3.40
2019-01-26T07:11:31.103Z,3.13
2019-01-26T07:14:01.570Z,3.00
2019-01-26T07:16:32.429Z,2.90
2019-01-26T07:19:02.884Z,3.03
2019-01-26T07:21:33.592Z,2.53
2019-01-26T07:24:04.022Z,3.20
2019-01-26T07:26:34.632Z,2.37
2019-01-26T07:29:05.103Z,2.70
2019-01-26T07:31:35.774Z,3.03
2019-01-26T07:34:06.432Z,3.00
2019-01-26T07:36:36.937Z,2.33
2019-01-26T07:39:10.234Z,2.53
2019-01-26T07:41:40.938Z,3.10
2019-01-26T07:44:11.451Z,2.60
2019-01-26T07:46:42.677Z,2.40
2019-01-26T07:49:13.170Z,2.20
2019-01-26T07:51:43.797Z,1.87
2019-01-26T07:54:16.467Z,2.13
2019-01-26T07:56:47.785Z,2.47
2019-01-26T07:59:18.322Z,2.53
2019-01-26T08:01:50.927Z,1.90
2019-01-26T08:04:21.375Z,2.07
2019-01-26T08:06:54.332Z,1.97
2019-01-26T08:09:25.313Z,2.37
2019-01-26T08:11:58.802Z,1.70
2019-01-26T08:14:29.281Z,2.20
2019-01-26T08:16:59.747Z,1.93
2019-01-26T08:19:30.247Z,1.90
2019-01-26T08:22:00.707Z,2.10
2019-01-26T08:24:31.366Z,2.97
2019-01-26T08:27:01.870Z,2.33
2019-01-26T08:29:32.348Z,2.50
2019-01-26T08:32:02.877Z,2.60
2019-01-26T08:34:33.371Z,2.73
2019-01-26T08:37:03.899Z,2.50
2019-01-26T08:39:34.404Z,3.47
2019-01-26T08:42:04.974Z,2.20
2019-01-26T08:44:35.440Z,1.93
2019-01-26T08:47:06.400Z,2.17
2019-01-26T08:49:36.936Z,2.10
2019-01-26T08:52:07.434Z,2.10
2019-01-26T08:54:38.063Z,1.97
2019-01-26T08:57:08.606Z,2.10
2019-01-26T08:59:39.254Z,1.90
2019-01-26T09:02:38.468Z,2.20
2019-01-26T09:05:11.091Z,2.30
2019-01-26T09:07:41.569Z,2.20
2019-01-26T09:10:12.078Z,1.87
2019-01-26T09:12:42.618Z,2.30
2019-01-26T09:15:13.437Z,2.10
2019-01-26T09:17:44.010Z,2.03
2019-01-26T09:20:14.803Z,1.80
2019-01-26T09:22:45.335Z,2.17
2019-01-26T09:25:15.809Z,2.17
2019-01-26T09:27:46.937Z,2.10
2019-01-26T09:30:17.970Z,1.97
2019-01-26T09:32:48.820Z,2.03
2019-01-26T09:35:19.293Z,2.03
2019-01-26T09:37:49.919Z,2.27
2019-01-26T09:40:20.690Z,1.80
2019-01-26T09:42:51.230Z,1.80
2019-01-26T09:45:22.051Z,2.13
2019-01-26T09:47:52.984Z,1.60
2019-01-26T09:50:23.761Z,1.90
2019-01-26T09:52:54.338Z,1.63
2019-01-26T09:55:24.809Z,1.70
2019-01-26T09:57:55.391Z,1.80
2019-01-26T10:00:25.982Z,1.70
2019-01-26T10:02:56.483Z,1.83
2019-01-26T10:05:27.760Z,1.70
2019-01-26T10:07:58.403Z,1.80
2019-01-26T10:10:28.922Z,1.60
2019-01-26T10:12:59.363Z,1.70
2019-01-26T10:15:30.699Z,1.40
2019-01-26T10:18:01.184Z,1.40
2019-01-26T10:20:34.021Z,1.60
2019-01-26T10:23:05.125Z,1.00
2019-01-26T10:25:35.753Z,1.13
2019-01-26T10:28:06.949Z,1.43
2019-01-26T10:30:52.875Z,1.27
2019-01-26T10:33:23.454Z,1.20
2019-01-26T10:36:12.814Z,1.37
2019-01-26T10:38:48.654Z,1.20
2019-01-26T10:41:41.070Z,1.17
2019-01-26T10:44:15.295Z,1.13
2019-01-26T10:46:45.813Z,1.10
2019-01-26T10:49:18.448Z,1.30
2019-01-26T10:51:48.957Z,1.00
2019-01-26T10:54:19.468Z,1.20
2019-01-26T10:56:49.933Z,1.43
2019-01-26T10:59:20.476Z,1.10
2019-01-26T11:01:51.066Z,1.33
2019-01-26T11:04:21.720Z,1.00
2019-01-26T11:06:52.160Z,1.33
2019-01-26T11:09:22.940Z,1.00
2019-01-26T11:11:53.415Z,1.20
2019-01-26T11:14:23.887Z,0.93
2019-01-26T11:16:54.359Z,0.97
2019-01-26T11:19:24.864Z,1.30
2019-01-26T11:21:56.685Z,1.20
2019-01-26T11:24:28.582Z,1.23
2019-01-26T11:27:00.311Z,1.20
2019-01-26T11:29:30.833Z,1.30
2019-01-26T11:32:01.707Z,1.10
2019-01-26T11:34:32.331Z,1.03
2019-01-26T11:37:02.775Z,1.30
2019-01-26T11:39:33.384Z,1.53
2019-01-26T11:42:03.846Z,1.30
2019-01-26T11:44:34.349Z,1.10
2019-01-26T11:47:07.570Z,1.10
2019-01-26T11:49:39.685Z,1.20
2019-01-26T11:52:11.012Z,1.20
2019-01-26T11:55:11.105Z,1.30
2019-01-26T11:57:41.572Z,1.40
2019-01-26T12:00:46.171Z,1.40
2019-01-26T12:03:38.675Z,1.50
2019-01-26T12:06:13.191Z,1.40
2019-01-26T12:08:43.716Z,1.30
2019-01-26T12:11:16.481Z,1.40
2019-01-26T12:13:47.040Z,1.43
2019-01-26T12:16:17.644Z,1.90
2019-01-26T12:18:48.223Z,1.33
2019-01-26T12:21:18.698Z,1.27
2019-01-26T12:23:50.568Z,1.40
2019-01-26T12:26:40.173Z,1.77
2019-01-26T12:29:10.663Z,1.40
2019-01-26T12:31:43.424Z,1.50
2019-01-26T12:34:13.915Z,1.10
2019-01-26T12:36:44.754Z,1.40
2019-01-26T12:39:15.358Z,1.50
2019-01-26T12:41:46.010Z,1.47
2019-01-26T12:44:17.839Z,1.40
2019-01-26T12:46:48.413Z,1.33
2019-01-26T12:49:18.924Z,1.50
2019-01-26T12:51:49.451Z,1.30
2019-01-26T12:54:20.071Z,1.23
2019-01-26T12:56:50.663Z,1.40
2019-01-26T12:59:22.225Z,1.70
2019-01-26T13:01:52.819Z,1.60
2019-01-26T13:04:23.611Z,1.50
2019-01-26T13:06:54.287Z,1.50
2019-01-26T13:09:25.604Z,1.30
2019-01-26T13:11:56.251Z,1.40
2019-01-26T13:14:27.659Z,1.73
2019-01-26T13:16:58.128Z,1.73
2019-01-26T13:19:36.791Z,1.70
2019-01-26T13:22:03.220Z,1.50
2019-01-26T13:24:33.775Z,1.63
2019-01-26T13:27:04.345Z,1.33
2019-01-26T13:29:35.639Z,1.50
2019-01-26T13:32:08.411Z,1.57
2019-01-26T13:34:39.261Z,1.47
2019-01-26T13:37:09.773Z,1.10
2019-01-26T13:39:40.824Z,1.30
2019-01-26T13:42:12.852Z,1.20
2019-01-26T13:44:44.382Z,1.27
2019-01-26T13:47:14.958Z,2.70
2019-01-26T13:49:46.052Z,2.10
2019-01-26T13:52:17.194Z,1.50
2019-01-26T13:54:48.992Z,1.30
2019-01-26T13:57:19.804Z,1.40
2019-01-26T13:59:50.510Z,1.30
2019-01-26T14:02:21.674Z,1.10
2019-01-26T14:04:53.601Z,1.00
2019-01-26T14:07:24.711Z,1.40
2019-01-26T14:09:55.299Z,1.20
2019-01-26T14:12:28.686Z,1.40
2019-01-26T14:14:59.496Z,1.23
2019-01-26T14:17:32.102Z,1.17
2019-01-26T14:20:02.605Z,1.20
2019-01-26T14:22:33.457Z,1.40
2019-01-26T14:25:05.028Z,1.30
2019-01-26T14:27:35.785Z,1.10
2019-01-26T14:30:18.872Z,1.10
2019-01-26T14:32:52.708Z,1.10
2019-01-26T14:35:22.106Z,1.20
2019-01-26T14:37:53.864Z,1.07
2019-01-26T14:40:26.322Z,1.23
2019-01-26T14:42:56.896Z,1.17
2019-01-26T14:45:29.200Z,1.40
2019-01-26T14:47:59.776Z,1.53
2019-01-26T14:50:31.522Z,1.27
2019-01-26T14:53:03.287Z,1.47
2019-01-26T14:55:33.945Z,1.23
2019-01-26T14:58:04.607Z,1.30
2019-01-26T15:00:35.979Z,1.30
2019-01-26T15:03:06.666Z,1.23
2019-01-26T15:05:37.323Z,1.23
2019-01-26T15:08:07.947Z,1.47
2019-01-26T15:10:39.682Z,1.40
2019-01-26T15:13:31.386Z,1.10
2019-01-26T15:16:04.791Z,1.40
2019-01-26T15:18:36.345Z,1.20
2019-01-26T15:21:07.486Z,1.30
2019-01-26T15:23:38.843Z,1.10
2019-01-26T15:26:11.004Z,1.07
2019-01-26T15:28:45.448Z,1.17
2019-01-26T15:31:17.214Z,0.90
2019-01-26T15:33:48.083Z,1.17
2019-01-26T15:36:19.066Z,1.03
2019-01-26T15:38:50.821Z,1.37
2019-01-26T15:41:21.812Z,1.50
2019-01-26T15:43:54.129Z,1.17
2019-01-26T15:46:24.719Z,1.00
2019-01-26T15:48:55.204Z,0.80
2019-01-26T15:51:25.964Z,0.90
2019-01-26T15:54:00.100Z,1.13
2019-01-26T15:56:31.001Z,1.00
2019-01-26T15:59:02.765Z,1.00
2019-01-26T16:01:35.156Z,1.00
2019-01-26T16:04:07.451Z,1.10
2019-01-26T16:06:39.252Z,1.10
2019-01-26T16:09:10.747Z,1.10
2019-01-26T16:11:41.543Z,1.60
2019-01-26T16:14:12.481Z,1.50
2019-01-26T16:16:43.454Z,1.53
2019-01-26T16:19:15.021Z,2.00
2019-01-26T16:21:46.055Z,2.40
2019-01-26T16:24:18.362Z,3.60
2019-01-26T16:26:55.160Z,3.90
2019-01-26T16:29:27.753Z,5.33
2019-01-26T16:32:00.680Z,9.43
2019-01-26T16:34:32.846Z,15.97
2019-01-26T16:37:05.445Z,18.93
2019-01-26T16:39:37.173Z,15.77
2019-01-26T16:42:15.757Z,13.67
2019-01-26T16:44:46.307Z,12.83
2019-01-26T16:47:16.801Z,13.57
2019-01-26T16:49:47.318Z,15.33
2019-01-26T16:52:17.886Z,16.30
2019-01-26T16:54:49.197Z,17.80
2019-01-26T16:57:23.680Z,20.80
2019-01-26T16:59:54.215Z,25.50
2019-01-26T17:02:24.726Z,27.00
2019-01-26T17:04:55.314Z,22.13
2019-01-26T17:07:26.770Z,19.77
2019-01-26T17:09:57.481Z,19.50
2019-01-26T17:12:28.102Z,18.20
2019-01-26T17:15:00.869Z,19.40
2019-01-26T17:17:32.513Z,16.30
2019-01-26T17:20:06.047Z,17.10
2019-01-26T17:22:36.646Z,18.10
2019-01-26T17:25:10.829Z,27.23
2019-01-26T17:27:42.314Z,33.97
2019-01-26T17:30:17.436Z,26.03
2019-01-26T17:32:48.025Z,21.03
2019-01-26T17:35:18.692Z,15.70
2019-01-26T17:37:49.250Z,10.50
2019-01-26T17:40:23.599Z,7.97
2019-01-26T17:42:56.210Z,6.30
2019-01-26T17:45:26.763Z,5.60
2019-01-26T17:47:57.320Z,5.60
2019-01-26T17:50:28.388Z,6.70
2019-01-26T17:52:59.136Z,5.10
2019-01-26T17:55:32.857Z,5.80
2019-01-26T17:58:03.436Z,7.37
2019-01-26T18:00:46.968Z,5.23
2019-01-26T18:03:18.998Z,5.27
2019-01-26T18:05:49.550Z,5.07
2019-01-26T18:08:20.125Z,5.67
2019-01-26T18:10:51.093Z,6.70
2019-01-26T18:13:22.037Z,7.60
2019-01-26T18:15:52.544Z,8.27
2019-01-26T18:18:23.993Z,6.93
2019-01-26T18:20:54.495Z,7.27
2019-01-26T18:23:29.128Z,9.43
2019-01-26T18:26:02.036Z,9.17
2019-01-26T18:28:35.458Z,11.17
2019-01-26T18:31:06.031Z,12.67
2019-01-26T18:33:37.502Z,13.43
2019-01-26T18:36:08.111Z,13.37
2019-01-26T18:38:38.664Z,13.83
2019-01-26T18:41:09.863Z,12.37
2019-01-26T18:43:44.429Z,12.97
2019-01-26T18:46:16.191Z,14.17
2019-01-26T18:48:46.671Z,14.60
2019-01-26T18:51:17.290Z,14.57
2019-01-26T18:53:47.913Z,13.53
2019-01-26T18:56:18.762Z,12.70
2019-01-26T18:58:50.379Z,7.23
2019-01-26T19:01:21.749Z,3.80
2019-01-26T19:04:30.446Z,3.97
2019-01-26T19:07:01.031Z,5.57
2019-01-26T19:09:31.658Z,5.53
2019-01-26T19:12:05.027Z,5.33
2019-01-26T19:14:40.415Z,3.80
2019-01-26T19:17:12.085Z,4.10
2019-01-26T19:19:44.130Z,6.17
2019-01-26T19:22:17.742Z,4.40
2019-01-26T19:24:48.311Z,5.17
2019-01-26T19:27:18.912Z,4.10
2019-01-26T19:29:56.770Z,3.00
2019-01-26T19:32:27.391Z,2.97
2019-01-26T19:34:57.999Z,2.47
2019-01-26T19:37:28.507Z,2.57
2019-01-26T19:40:03.157Z,2.90
2019-01-26T19:42:34.040Z,2.30
2019-01-26T19:45:13.036Z,2.90
2019-01-26T19:47:43.617Z,2.67
2019-01-26T19:50:18.281Z,2.80
2019-01-26T19:52:49.100Z,2.90
2019-01-26T19:55:20.765Z,3.07
2019-01-26T19:57:51.403Z,2.87
2019-01-26T20:00:22.120Z,2.50
2019-01-26T20:02:52.701Z,2.60
2019-01-26T20:05:23.453Z,2.60
2019-01-26T20:07:56.825Z,2.40
2019-01-26T20:10:27.387Z,2.20
2019-01-26T20:12:58.229Z,2.73
2019-01-26T20:15:29.253Z,2.67
2019-01-26T20:18:00.120Z,2.57
2019-01-26T20:20:33.497Z,2.60
2019-01-26T20:23:04.124Z,2.43
2019-01-26T20:25:34.728Z,2.67
2019-01-26T20:28:08.472Z,2.80
2019-01-26T20:30:46.972Z,3.27
2019-01-26T20:33:17.576Z,3.03
2019-01-26T20:35:48.025Z,3.30
2019-01-26T20:38:18.550Z,3.23
2019-01-26T20:40:50.830Z,3.30
2019-01-26T20:43:23.866Z,3.57
2019-01-26T20:45:54.375Z,3.97
2019-01-26T20:48:24.857Z,4.10
2019-01-26T20:50:55.838Z,4.03
2019-01-26T20:53:31.833Z,4.00
2019-01-26T20:56:07.473Z,4.03
2019-01-26T20:58:38.426Z,4.10
2019-01-26T21:01:08.980Z,4.20
2019-01-26T21:03:39.540Z,4.50
2019-01-26T21:06:11.496Z,4.67
2019-01-26T21:08:42.821Z,4.37
2019-01-26T21:11:18.776Z,4.20
2019-01-26T21:13:54.333Z,4.40
2019-01-26T21:16:25.903Z,4.60
2019-01-26T21:18:56.721Z,4.00
2019-01-26T21:21:31.999Z,4.07
2019-01-26T21:24:01.893Z,4.10
2019-01-26T21:26:32.342Z,3.90
2019-01-26T21:29:02.889Z,3.93
2019-01-26T21:31:33.469Z,4.10
2019-01-26T21:34:06.097Z,3.67
2019-01-26T21:36:37.479Z,3.60
2019-01-26T21:39:10.121Z,4.03
2019-01-26T21:41:40.975Z,3.40
2019-01-26T21:44:17.198Z,3.00
2019-01-26T21:46:47.642Z,3.37
2019-01-26T21:49:21.201Z,3.13
2019-01-26T21:51:53.492Z,3.30
2019-01-26T21:54:25.779Z,3.13
2019-01-26T21:56:58.356Z,3.33
2019-01-26T21:59:30.028Z,3.33
2019-01-26T22:02:00.587Z,3.10
2019-01-26T22:04:31.397Z,3.10
2019-01-26T22:07:03.713Z,2.53
2019-01-26T22:09:34.188Z,3.23
2019-01-26T22:12:08.773Z,2.70
2019-01-26T22:14:40.489Z,2.87
2019-01-26T22:17:10.952Z,2.70
2019-01-26T22:19:45.712Z,2.70
2019-01-26T22:22:16.177Z,2.30
2019-01-26T22:24:47.471Z,2.43
2019-01-26T22:27:17.896Z,2.70
2019-01-26T22:29:49.907Z,2.37
2019-01-26T22:32:20.767Z,2.30
2019-01-26T22:34:51.257Z,2.50
2019-01-26T22:37:21.826Z,2.30
2019-01-26T22:39:52.733Z,2.60
2019-01-26T22:42:23.214Z,2.03
2019-01-26T22:44:56.117Z,1.90
2019-01-26T22:47:26.757Z,2.40
2019-01-26T22:49:59.078Z,2.10
2019-01-26T22:52:31.868Z,2.40
2019-01-26T22:55:03.979Z,1.93
2019-01-26T22:57:35.395Z,2.33
2019-01-26T23:00:47.403Z,2.62
2019-01-26T23:03:18.496Z,2.50
2019-01-26T23:06:15.991Z,2.23
2019-01-26T23:08:49.174Z,2.60
2019-01-26T23:11:58.162Z,2.73
2019-01-26T23:15:29.618Z,2.63
2019-01-26T23:18:45.433Z,2.57
2019-01-26T23:22:24.317Z,2.43
2019-01-26T23:25:49.782Z,2.47
2019-01-26T23:29:21.860Z,2.17
2019-01-26T23:31:52.580Z,2.13
2019-01-26T23:34:23.356Z,1.97
2019-01-26T23:36:54.194Z,2.50
2019-01-26T23:39:25.039Z,2.63
2019-01-26T23:41:56.082Z,2.00
2019-01-26T23:44:26.625Z,1.97
2019-01-26T23:46:57.492Z,2.37
2019-01-26T23:49:27.970Z,2.20
2019-01-26T23:51:58.481Z,2.27
2019-01-26T23:54:30.448Z,1.80
2019-01-26T23:57:01.017Z,2.30
2019-01-26T23:59:31.343Z,2.00
